KRST

Rochester International Airport

Rochester, Minnesota, USA
METAR KRST 162154Z AUTO 06006KT 10SM CLR M05/M11 A3021 RMK AO2 SLP254 T10501111
Observed Flight Rules
Jan-16 @ 21:54 UTC (38 minutes ago) Visual Flight Rules
Wind Visibility Clouds
60° at 6 knots 10 miles
  • Clear skies
Temperatures Readings
Current -5°C / 23°F
Dewpoint -11°C / 12°F
Humidity 63%
Altimeter 30.21" Hg
Pressure 1025.4 hPa
Elevation 403
METAR KRST 162154Z AUTO 06006KT 10SM CLR M05/M11 A3021 RMK AO2 SLP254 T10501111
Observed Flight Rules
Jan-16 @ 21:54 UTC
(38 minutes ago)
VFR
Wind Visibility
60° at 6 knots 10 miles
Clouds
  • Clear skies
Temperature Dewpoint
-5°C / 23°F -11°C / 12°F
Humidity Altimeter Pressure
63% 30.21" Hg 1025.4 hPa